INFORMACIÓN METAR y TAF

METAR FOR WAMM
ADDS - METARS form results

(1135 UTC 27 November 2020)
Data provider http://aviationweather.gov/metar/data/
 
METAR text: WAMM 271130Z VRB01KT 9999 SCT021 26/24 Q1009 NOSIG
Conditions at: WAMM (MENADO/SAM RATUL, ID) observed 1130 UTC 27 November 2020
Temperature: 26.0°C (79°F)
Dewpoint: 24.0°C (75°F) [RH = 89%]
Pressure (altimeter): 29.79 inches Hg (1009.0 mb)
Winds: variable direction winds at 1 MPH (1 knots; 0.5 m/s)
Visibility: 6 or more miles (10+ km)
Ceiling: at least 12,000 feet AGL
Clouds: scattered clouds at 2100 feet AGL
Weather: no significant weather observed at this time

METAR text: WAMM 271100Z VRB01KT 9999 SCT021 26/24 Q1008 NOSIG
Conditions at: WAMM (MENADO/SAM RATUL, ID) observed 1100 UTC 27 November 2020
Temperature: 26.0°C (79°F)
Dewpoint: 24.0°C (75°F) [RH = 89%]
Pressure (altimeter): 29.76 inches Hg (1008.0 mb)
Winds: variable direction winds at 1 MPH (1 knots; 0.5 m/s)
Visibility: 6 or more miles (10+ km)
Ceiling: at least 12,000 feet AGL
Clouds: scattered clouds at 2100 feet AGL
Weather: no significant weather observed at this time

Forecast for: WAMM (MENADO/SAM RATUL, ID)
Text: TAF WAMM 271100Z 2712/2818 VRB03KT 9999 SCT021
Forecast period: 1200 to 2300 UTC 27 November 2020
Forecast type: FROM: standard forecast or significant change
Winds: variable direction winds at 3 MPH (3 knots; 1.5 m/s)
Visibility: 6 or more miles (10+ km)
Ceiling: at least 12,000 feet AGL
Clouds: scattered clouds at 2100 feet AGL
Weather: no significant weather forecast for this period
Text: BECMG 2723/2801 01008KT
Forecast period: 2300 UTC 27 November 2020 to 1800 UTC 28 November 2020
Forecast type: BECOMING: Conditions expected to become as follows by 0100 UTC 28 November 2020
Winds: from the N (10 degrees) at 9 MPH (8 knots; 4.1 m/s)
Visibility: 6 or more miles (10+ km)
Ceiling: at least 12,000 feet AGL
Clouds: scattered clouds at 2100 feet AGL
Weather: no significant weather forecast for this period

 MAPA DE AEROPUERTO

 INFORMACIÓN DE PISTA
Pista 18 Longitud 8693 ft Ancho 148 ft
Elevación 270 ft Umbral desplazado 0 ft Rumbo de pista 182
Pista 36 Longitud 8693 ft Ancho 148 ft
Elevación 264 ft Umbral desplazado 0 ft Rumbo de pista 2

 FRECUENCIAS DEL AEROPUERTO
Tipo APP Nombre MANADO APP Frecuencia 119 MHZ
Tipo ATIS Nombre ATIS Frecuencia 126.4 MHZ
Tipo INFO Nombre MANADO INF Frecuencia 891.8 MHZ
Tipo TWR Nombre RATULANGI Frecuencia 118.1 MHZ

 RADIO AYUDAS DEL AEROPUERTO
Tipo NDB Nombre Manado Frecuencia 255 KHZ
Tipo VOR-DME Nombre Manado Frecuencia 114200 KHZ
Tipo VOR-DME Nombre Manado Frecuencia 114800 KHZ
Tipo NDB Nombre Manado Frecuencia 290 KHZ



©2020 LAPA Virtual - Todos los derechos reservados.

VAM [v2.6.2] - Powered & Development by AccessPoint LLC